Deir Ezzor, Syria
Current Conditions -  °F | °C
As of 7:50 PM on Thursday 30 Oct 2014 (Local Time) from LTCS Reporting Station
Broken Clouds Broken Clouds  
Wind Chill: 55°   Ceiling: 10000
Heat Index: 55°   Visibility: 6mi
Dew Point: 50°   Wind: 8mph
Humidity: 82%   Direction: 10°N
Pressure: 30"   Gusts: NA
Location:  35.32°N, 40.15°E
Report Text: LTCS 301650Z 01007KT 9999 SCT040 BKN100 13/10 Q1016
Loading
Personal Weather Stations






























Interactive Weather Map
Tropical Storm Tracking
New forecast layout! Learn more

10-Day Weather Forecast

Advertisements
Track Severe Weather on mobile